Corinth, Vermont
Current Conditions -  °F | °C
As of 2:51 PM on Saturday 25 Oct 2014 (Local Time) from KMPV Reporting Station
Broken Clouds Broken Clouds  
Wind Chill: 57°   Ceiling: 4200
Heat Index: 57°   Visibility: 10mi
Dew Point: 40°   Wind: 5mph
Humidity: 53%   Direction: 200°SSW
Pressure: 29.61"   Gusts: NA
Location:  44.02°N, 72.3°W
Report Text: KMPV 251851Z AUTO 20004KT 10SM BKN042 14/04 A2961 RMK AO2 SLP034 T01390044 $
Loading
Personal Weather Stations






























Interactive Weather Map
Tropical Storm Tracking
New forecast layout! Learn more

10-Day Weather Forecast

Advertisements
Track Severe Weather on mobile